Time;durP1;ratioP1;P1;durP2;ratioP2;P2;SDS_P1;SDS_P2;PMS_P1;PMS_P2;Temp;Humidity;BMP_temperature;BMP_pressure;BME280_temperature;BME280_humidity;BME280_pressure;Samples;Min_cycle;Max_cycle;Signal;HPM_P1;HPM_P2
2021/06/01 00:00:08;;;;;;;6.03;3.80;;;;;;;6.73;99.56;101261.94;4967697;28;20203;-71
2021/06/01 00:02:34;;;;;;;7.47;3.73;;;;;;;6.74;100.00;101261.09;4972738;28;20206;-71
2021/06/01 00:05:01;;;;;;;5.27;3.50;;;;;;;6.79;100.00;101267.13;4974840;28;20222;-71
2021/06/01 00:07:27;;;;;;;4.60;3.07;;;;;;;6.70;98.89;101259.34;4970708;28;20197;-71
2021/06/01 00:09:53;;;;;;;4.13;3.37;;;;;;;6.79;100.00;101256.75;4971825;28;20295;-71
2021/06/01 00:12:20;;;;;;;3.83;3.10;;;;;;;6.56;98.73;101262.81;4980376;28;20232;-71
2021/06/01 00:14:46;;;;;;;4.60;3.63;;;;;;;6.68;100.00;101258.47;4972619;28;20218;-71
2021/06/01 00:17:12;;;;;;;4.47;3.23;;;;;;;6.67;100.00;101260.22;4975215;28;20219;-71
2021/06/01 00:19:38;;;;;;;5.67;3.57;;;;;;;6.59;100.00;101261.94;4972443;28;20602;-71
2021/06/01 00:22:04;;;;;;;6.33;3.67;;;;;;;6.54;100.00;101255.88;4989371;28;20197;-71
2021/06/01 00:24:30;;;;;;;4.07;3.10;;;;;;;6.51;100.00;101261.03;4981509;28;20652;-71
2021/06/01 00:26:56;;;;;;;4.23;3.43;;;;;;;6.50;100.00;101259.34;4979208;28;20204;-71
2021/06/01 00:29:23;;;;;;;3.90;3.40;;;;;;;6.52;100.00;101255.00;4978701;28;20606;-71
2021/06/01 00:31:49;;;;;;;4.10;3.47;;;;;;;6.48;100.00;101254.16;4978665;28;20213;-71
2021/06/01 00:34:16;;;;;;;4.33;3.40;;;;;;;6.39;100.00;101252.41;4964735;28;20617;-71
2021/06/01 00:36:43;;;;;;;4.73;3.53;;;;;;;6.49;100.00;101257.59;4973746;28;20198;-71
2021/06/01 00:39:09;;;;;;;6.13;3.50;;;;;;;6.53;100.00;101248.97;4976407;28;20195;-71
2021/06/01 00:41:35;;;;;;;4.50;3.30;;;;;;;6.56;100.00;101239.47;4970199;28;20197;-71
2021/06/01 00:44:02;;;;;;;4.57;3.87;;;;;;;6.39;100.00;101244.66;4971231;28;20318;-71
2021/06/01 00:46:30;;;;;;;4.73;3.73;;;;;;;6.45;100.00;101246.38;4974852;28;20221;-71
2021/06/01 00:48:56;;;;;;;4.63;3.50;;;;;;;6.40;100.00;101246.38;4977998;28;20232;-71
2021/06/01 00:51:22;;;;;;;7.30;3.47;;;;;;;6.32;100.00;101250.69;4982170;28;20225;-71
2021/06/01 00:53:48;;;;;;;4.57;3.50;;;;;;;6.23;100.00;101242.91;4970419;28;20285;-71
2021/06/01 00:56:14;;;;;;;4.43;3.10;;;;;;;6.20;100.00;101246.34;4978269;28;20692;-71
2021/06/01 00:58:41;;;;;;;3.43;3.10;;;;;;;6.25;100.00;101246.34;4973059;28;20413;-71
2021/06/01 01:01:18;;;;;;;4.83;3.33;;;;;;;6.23;100.00;101248.94;4985405;28;20261;-71
2021/06/01 01:03:47;;;;;;;3.60;3.20;;;;;;;6.32;100.00;101250.69;4967123;28;20213;-71
2021/06/01 01:06:30;;;;;;;3.83;3.10;;;;;;;6.39;100.00;101247.22;4969089;28;20233;-71
2021/06/01 01:08:59;;;;;;;3.23;2.80;;;;;;;6.18;100.00;101249.81;4977343;28;20736;-71
2021/06/01 01:11:32;;;;;;;3.57;3.10;;;;;;;6.10;100.00;101249.75;4975815;28;20209;-71
2021/06/01 01:14:01;;;;;;;4.53;3.23;;;;;;;6.14;100.00;101248.03;4972081;28;20241;-71
2021/06/01 01:16:31;;;;;;;4.50;3.27;;;;;;;6.13;100.00;101244.59;4971141;28;20218;-71
2021/06/01 01:19:06;;;;;;;5.30;3.23;;;;;;;6.17;100.00;101248.06;4975572;28;20551;-71
2021/06/01 01:21:37;;;;;;;4.57;2.97;;;;;;;6.12;100.00;101248.06;4969325;28;20677;-71
2021/06/01 01:24:17;;;;;;;3.30;3.00;;;;;;;6.06;100.00;101253.22;4976331;28;20216;-71
2021/06/01 01:26:54;;;;;;;3.30;3.00;;;;;;;5.96;100.00;101252.34;4972927;28;20190;-71
2021/06/01 01:29:32;;;;;;;4.73;3.00;;;;;;;5.85;100.00;101253.97;4982204;28;20688;-71
2021/06/01 01:32:00;;;;;;;4.43;3.40;;;;;;;5.81;100.00;101250.53;4985499;28;20662;-71
2021/06/01 01:34:28;;;;;;;5.60;3.20;;;;;;;5.86;100.00;101243.66;4973540;28;20233;-71
2021/06/01 01:36:56;;;;;;;3.73;3.20;;;;;;;5.96;100.00;101239.41;4988637;28;20236;-71
2021/06/01 01:39:24;;;;;;;5.20;2.97;;;;;;;6.06;100.00;101242.84;4969369;28;20202;-71
2021/06/01 01:41:51;;;;;;;3.73;3.20;;;;;;;5.98;100.00;101242.84;4990763;28;20211;-71
2021/06/01 01:44:19;;;;;;;5.00;2.80;;;;;;;6.04;100.00;101244.59;4975199;28;20217;-71
2021/06/01 01:46:58;;;;;;;3.87;3.13;;;;;;;6.04;100.00;101240.25;4969231;28;20199;-71
2021/06/01 01:49:24;;;;;;;4.63;3.60;;;;;;;5.77;100.00;101246.22;4962865;28;20634;-71
2021/06/01 01:51:54;;;;;;;4.40;3.40;;;;;;;5.77;100.00;101243.63;4983845;28;20300;-71
2021/06/01 01:54:22;;;;;;;4.73;3.20;;;;;;;5.78;100.00;101232.38;4986807;28;20233;-71
2021/06/01 01:56:52;;;;;;;6.83;3.97;;;;;;;5.69;100.00;101229.78;4962991;28;20717;-71
2021/06/01 01:59:20;;;;;;;4.30;3.30;;;;;;;5.55;100.00;101229.72;4974712;28;20670;-71
2021/06/01 02:01:49;;;;;;;5.50;3.47;;;;;;;5.57;100.00;101229.72;4978274;28;20206;-71
2021/06/01 02:04:17;;;;;;;3.73;3.07;;;;;;;5.63;100.00;101217.69;4971153;28;20198;-71
2021/06/01 02:06:44;;;;;;;4.23;3.00;;;;;;;5.46;100.00;101224.50;4969967;28;20194;-71
2021/06/01 02:09:11;;;;;;;5.43;3.83;;;;;;;5.50;100.00;101221.06;4993912;28;20224;-71
2021/06/01 02:11:37;;;;;;;4.93;3.00;;;;;;;5.36;100.00;101220.16;4965678;28;20277;-71
2021/06/01 02:14:05;;;;;;;5.07;3.00;;;;;;;5.55;100.00;101223.69;4964702;28;20211;-71
2021/06/01 02:16:32;;;;;;;4.10;3.20;;;;;;;5.57;100.00;101217.66;4971581;28;20224;-71
2021/06/01 02:18:58;;;;;;;4.70;3.20;;;;;;;5.53;100.00;101212.47;4971795;28;20262;-71
2021/06/01 02:21:37;;;;;;;4.03;3.07;;;;;;;5.41;100.00;101211.56;4972098;28;20291;-72
2021/06/01 02:24:07;;;;;;;4.27;3.53;;;;;;;5.47;100.00;101213.28;4966407;28;20205;-71
2021/06/01 02:26:52;;;;;;;3.87;2.87;;;;;;;5.50;100.00;101216.78;4973584;28;20201;-71
2021/06/01 02:29:26;;;;;;;5.60;2.80;;;;;;;5.51;100.00;101222.81;4969492;28;20224;-71
2021/06/01 02:31:54;;;;;;;4.73;2.83;;;;;;;5.61;100.00;101215.94;4972835;28;20212;-71
2021/06/01 02:34:21;;;;;;;7.00;3.30;;;;;;;5.41;100.00;101221.91;4982021;28;20197;-71
2021/06/01 02:36:51;;;;;;;4.67;3.60;;;;;;;5.25;100.00;101217.50;4982172;28;20196;-71
2021/06/01 02:39:18;;;;;;;4.00;3.07;;;;;;;5.17;100.00;101219.19;4973478;28;20217;-71
2021/06/01 02:41:47;;;;;;;4.30;3.70;;;;;;;5.19;100.00;101217.47;4974924;28;20203;-71
2021/06/01 02:44:13;;;;;;;4.37;3.63;;;;;;;5.10;100.00;101221.75;4967394;28;20205;-71
2021/06/01 02:46:40;;;;;;;5.13;3.57;;;;;;;5.04;100.00;101213.94;4974489;28;20202;-71
2021/06/01 02:49:06;;;;;;;5.03;3.53;;;;;;;5.19;100.00;101213.19;4979251;28;20197;-71
2021/06/01 02:51:33;;;;;;;6.63;3.30;;;;;;;5.19;100.00;101213.19;4971048;28;20261;-71
2021/06/01 02:54:00;;;;;;;4.20;3.37;;;;;;;5.36;100.00;101210.66;4978354;28;20201;-71
2021/06/01 02:56:28;;;;;;;4.30;3.47;;;;;;;5.18;100.00;101211.44;4977028;28;20312;-71
2021/06/01 02:58:57;;;;;;;5.53;3.40;;;;;;;5.19;100.00;101209.72;4975771;28;20466;-71
2021/06/01 03:01:25;;;;;;;5.93;3.40;;;;;;;5.16;100.00;101207.13;4974274;28;20763;-71
2021/06/01 03:03:52;;;;;;;5.53;3.53;;;;;;;4.97;100.00;101214.75;4968129;28;20324;-71
2021/06/01 03:06:20;;;;;;;5.77;3.43;;;;;;;5.16;100.00;101215.75;4975587;28;20305;-71
2021/06/01 03:08:47;;;;;;;4.20;3.13;;;;;;;5.08;100.00;101210.53;4981266;28;20199;-71
2021/06/01 03:11:15;;;;;;;4.60;3.40;;;;;;;5.18;100.00;101214.03;4977991;28;20630;-71
2021/06/01 03:13:42;;;;;;;5.77;3.90;;;;;;;5.43;100.00;101208.97;4971782;28;20276;-71
2021/06/01 03:16:10;;;;;;;5.07;3.67;;;;;;;5.19;100.00;101213.19;4971932;28;20305;-71
2021/06/01 03:18:36;;;;;;;5.90;3.40;;;;;;;5.29;100.00;101211.50;4977314;28;20194;-71
2021/06/01 03:21:02;;;;;;;4.90;3.30;;;;;;;5.38;100.00;101211.56;4978317;28;20213;-71
2021/06/01 03:23:28;;;;;;;5.23;3.53;;;;;;;5.30;100.00;101213.25;4964663;28;20199;-71
2021/06/01 03:25:54;;;;;;;4.80;3.60;;;;;;;5.22;100.00;101214.91;4995335;28;20707;-71
2021/06/01 03:28:21;;;;;;;4.37;3.37;;;;;;;5.16;100.00;101212.31;4979099;28;20206;-71
2021/06/01 03:30:48;;;;;;;4.50;3.50;;;;;;;5.12;100.00;101216.59;4987023;28;20268;-71
2021/06/01 03:33:16;;;;;;;4.13;3.10;;;;;;;5.37;100.00;101214.13;4975566;28;20205;-71
2021/06/01 03:35:42;;;;;;;5.07;2.97;;;;;;;5.43;100.00;101214.16;4971468;28;20846;-71
2021/06/01 03:38:09;;;;;;;4.27;3.20;;;;;;;5.38;100.00;101213.25;4972064;28;20208;-71
2021/06/01 03:40:35;;;;;;;6.00;3.73;;;;;;;5.41;100.00;101208.09;4980788;28;20226;-71
2021/06/01 03:43:01;;;;;;;5.77;3.47;;;;;;;5.37;100.00;101203.78;4993232;28;20201;-71
2021/06/01 03:45:27;;;;;;;5.30;3.43;;;;;;;5.44;100.00;101200.38;4980508;28;20571;-71
2021/06/01 03:47:54;;;;;;;8.57;3.77;;;;;;;5.52;100.00;101203.84;4975760;28;20224;-71
2021/06/01 03:50:22;;;;;;;4.20;3.03;;;;;;;5.71;100.00;101201.31;4984560;28;20245;-71
2021/06/01 03:52:48;;;;;;;5.93;3.53;;;;;;;5.74;100.00;101209.09;4983053;28;20201;-71
2021/06/01 03:55:15;;;;;;;4.37;3.47;;;;;;;5.85;100.00;101202.22;4971432;28;20234;-71
2021/06/01 03:57:43;;;;;;;5.00;3.80;;;;;;;5.82;100.00;101202.22;4980990;28;20213;-71
2021/06/01 04:00:12;;;;;;;5.90;3.80;;;;;;;5.87;100.00;101206.56;4966209;28;20217;-71
2021/06/01 04:02:41;;;;;;;3.67;3.27;;;;;;;5.94;100.00;101207.41;4977483;28;20190;-71
2021/06/01 04:05:08;;;;;;;7.53;3.93;;;;;;;6.11;100.00;101210.09;4977319;28;20222;-71
2021/06/01 04:07:35;;;;;;;4.90;3.80;;;;;;;6.14;100.00;101212.69;4980833;28;20757;-71
2021/06/01 04:10:02;;;;;;;5.43;3.77;;;;;;;6.27;100.00;101217.88;4980047;28;20228;-71
2021/06/01 04:12:28;;;;;;;6.43;4.13;;;;;;;6.40;100.00;101206.66;4972777;28;20620;-71
2021/06/01 04:14:54;;;;;;;7.20;4.00;;;;;;;6.60;100.00;101212.69;4974265;28;20718;-71
2021/06/01 04:17:20;;;;;;;4.30;3.50;;;;;;;6.84;100.00;101205.75;4981408;28;20251;-71
2021/06/01 04:19:46;;;;;;;6.37;4.43;;;;;;;7.07;100.00;101210.03;4972593;28;20197;-71
2021/06/01 04:22:12;;;;;;;7.37;3.60;;;;;;;7.15;100.00;101210.91;4976514;28;20205;-71
2021/06/01 04:24:40;;;;;;;6.73;4.37;;;;;;;7.27;100.00;101208.25;4969793;28;20268;-71
2021/06/01 04:27:07;;;;;;;5.27;3.73;;;;;;;7.47;100.00;101210.78;4972600;28;20201;-71
2021/06/01 04:29:33;;;;;;;6.33;4.40;;;;;;;7.56;100.00;101210.75;4972631;28;20237;-71
2021/06/01 04:31:59;;;;;;;6.23;4.00;;;;;;;7.74;100.00;101206.34;4978947;28;20193;-71
2021/06/01 04:34:25;;;;;;;6.97;4.63;;;;;;;7.85;100.00;101208.88;4976434;28;20209;-71
2021/06/01 04:36:51;;;;;;;5.53;3.87;;;;;;;7.96;100.00;101210.53;4972001;28;20202;-71
2021/06/01 04:39:17;;;;;;;5.43;4.03;;;;;;;8.15;100.00;101211.28;4970629;28;20198;-71
2021/06/01 04:41:44;;;;;;;6.00;4.23;;;;;;;8.33;99.89;101212.03;4976309;28;20202;-71
2021/06/01 04:44:10;;;;;;;4.13;3.73;;;;;;;8.40;97.02;101216.31;4978015;28;20232;-71
2021/06/01 04:46:36;;;;;;;4.67;4.17;;;;;;;8.59;98.39;101213.59;4975946;28;20226;-71
2021/06/01 04:49:03;;;;;;;6.30;4.47;;;;;;;8.66;97.42;101213.53;4989658;28;20209;-71
2021/06/01 04:51:29;;;;;;;4.83;4.27;;;;;;;8.73;96.83;101210.88;4975806;28;20213;-71
2021/06/01 04:53:56;;;;;;;6.67;4.40;;;;;;;8.76;94.99;101216.03;4979807;28;20693;-71
2021/06/01 04:56:23;;;;;;;5.43;3.70;;;;;;;8.83;95.91;101213.38;4973027;28;20213;-71
2021/06/01 04:58:51;;;;;;;4.13;3.70;;;;;;;8.95;97.19;101212.38;4978271;28;20314;-71
2021/06/01 05:01:17;;;;;;;5.80;3.90;;;;;;;9.09;96.48;101212.22;4974678;28;20672;-71
2021/06/01 05:03:44;;;;;;;4.63;3.83;;;;;;;9.32;95.52;101205.91;4971768;28;20212;-71
2021/06/01 05:06:10;;;;;;;5.30;3.93;;;;;;;9.51;93.77;101212.63;4972687;28;20281;-71
2021/06/01 05:08:37;;;;;;;5.87;4.03;;;;;;;9.64;91.75;101214.19;4966286;28;20206;-71
2021/06/01 05:11:04;;;;;;;4.60;3.63;;;;;;;9.83;91.54;101212.22;4965357;28;20223;-71
2021/06/01 05:13:30;;;;;;;5.90;3.90;;;;;;;10.02;88.37;101218.00;4968611;28;20564;-71
2021/06/01 05:15:58;;;;;;;4.67;4.00;;;;;;;10.24;88.69;101223.78;4967983;28;20223;-71
2021/06/01 05:18:24;;;;;;;6.17;3.63;;;;;;;10.39;87.77;101212.28;4964535;28;20454;-71
2021/06/01 05:20:50;;;;;;;5.57;3.90;;;;;;;10.51;87.83;101208.63;4976995;28;20271;-71
2021/06/01 05:23:17;;;;;;;5.90;3.50;;;;;;;10.66;86.09;101217.94;4973278;28;20203;-71
2021/06/01 05:25:44;;;;;;;4.03;3.43;;;;;;;10.84;86.22;101215.91;4971582;28;20238;-71
2021/06/01 05:28:10;;;;;;;4.17;3.50;;;;;;;11.02;85.61;101219.91;4974954;28;20737;-71
2021/06/01 05:30:39;;;;;;;4.00;3.60;;;;;;;11.22;85.61;101216.94;4974610;28;20216;-71
2021/06/01 05:33:14;;;;;;;3.37;3.07;;;;;;;11.40;84.50;101218.31;4985381;28;20288;-71
2021/06/01 05:35:44;;;;;;;4.20;3.47;;;;;;;11.59;84.46;101222.28;4975613;28;20715;-71
2021/06/01 05:38:10;;;;;;;3.77;3.33;;;;;;;11.75;82.69;101225.44;4974644;28;20201;-72
2021/06/01 05:40:36;;;;;;;4.53;3.70;;;;;;;11.96;83.17;101220.66;4969346;28;20202;-72
2021/06/01 05:43:03;;;;;;;5.73;3.40;;;;;;;12.15;82.19;101228.94;4977677;28;20988;-71
2021/06/01 05:45:29;;;;;;;5.00;3.43;;;;;;;12.35;80.74;101225.84;4963973;28;20241;-72
2021/06/01 05:47:55;;;;;;;3.47;3.17;;;;;;;12.54;78.73;101235.00;4969157;28;20205;-71
2021/06/01 05:50:23;;;;;;;4.23;3.10;;;;;;;12.72;77.48;101230.16;4978917;28;20212;-72
2021/06/01 05:52:49;;;;;;;3.83;3.40;;;;;;;12.89;78.89;101225.34;4976697;28;20218;-71
2021/06/01 05:55:15;;;;;;;4.80;3.23;;;;;;;13.04;78.44;101221.50;4961594;28;20273;-72
2021/06/01 05:57:41;;;;;;;4.10;3.47;;;;;;;13.25;78.08;101231.38;4974308;28;20671;-72
2021/06/01 06:00:09;;;;;;;4.80;3.17;;;;;;;13.44;77.26;101229.13;4974491;28;20207;-72
2021/06/01 06:02:36;;;;;;;3.83;2.93;;;;;;;13.66;76.35;101230.28;4968248;28;20688;-71
2021/06/01 06:05:02;;;;;;;3.40;2.90;;;;;;;13.88;75.00;101238.34;4968528;28;20245;-71
2021/06/01 06:07:29;;;;;;;5.27;2.73;;;;;;;14.07;71.98;101242.16;4970474;28;20604;-72
2021/06/01 06:09:55;;;;;;;3.50;2.90;;;;;;;14.24;70.16;101248.63;4968119;28;20621;-71
2021/06/01 06:12:21;;;;;;;8.30;2.80;;;;;;;14.46;66.81;101251.41;4970089;28;20227;-72
2021/06/01 06:14:47;;;;;;;2.60;2.20;;;;;;;14.66;65.21;101253.41;4976820;28;20324;-71
2021/06/01 06:17:28;;;;;;;5.33;2.87;;;;;;;14.87;67.77;101241.34;4972237;28;20706;-71
2021/06/01 06:19:55;;;;;;;3.47;2.50;;;;;;;15.07;69.06;101236.25;4987490;28;20569;-71
2021/06/01 06:22:21;;;;;;;3.27;2.40;;;;;;;15.15;66.63;101246.50;4975240;28;20219;-71
2021/06/01 06:24:50;;;;;;;3.23;2.60;;;;;;;15.17;63.44;101255.16;4976123;28;20225;-72
2021/06/01 06:27:16;;;;;;;2.93;2.63;;;;;;;15.24;65.02;101251.41;4967710;28;20265;-72
2021/06/01 06:29:43;;;;;;;3.73;2.40;;;;;;;15.36;64.84;101249.28;4969235;28;20228;-72
2021/06/01 06:32:09;;;;;;;2.50;2.20;;;;;;;15.59;63.44;101245.78;4974754;28;20614;-72
2021/06/01 06:34:35;;;;;;;2.60;2.40;;;;;;;15.76;61.71;101245.19;4970904;28;20611;-72
2021/06/01 06:37:01;;;;;;;2.70;2.30;;;;;;;15.95;59.63;101251.44;4974735;28;20226;-72
2021/06/01 06:39:27;;;;;;;2.57;2.10;;;;;;;15.90;59.87;101241.13;4978851;28;20194;-72
2021/06/01 06:41:54;;;;;;;4.13;2.07;;;;;;;16.06;59.48;101245.78;4972361;28;20247;-72
2021/06/01 06:44:20;;;;;;;2.50;1.90;;;;;;;16.12;59.77;101240.28;4972604;28;20249;-72
2021/06/01 06:47:02;;;;;;;2.53;1.90;;;;;;;16.16;57.96;101239.22;4967836;28;20251;-72
2021/06/01 06:49:28;;;;;;;2.50;2.00;;;;;;;16.36;59.44;101229.66;4974758;28;20190;-71
2021/06/01 06:51:54;;;;;;;2.27;2.03;;;;;;;16.60;58.81;101226.06;4972891;28;20214;-72
2021/06/01 06:54:20;;;;;;;4.13;2.23;;;;;;;16.64;57.98;101239.94;4975480;28;20219;-72
2021/06/01 06:56:46;;;;;;;2.43;1.87;;;;;;;16.71;58.22;101224.72;4976689;28;20201;-72
2021/06/01 06:59:13;;;;;;;4.10;2.30;;;;;;;16.83;58.73;101216.31;4974619;28;20260;-72
2021/06/01 07:01:39;;;;;;;3.27;2.60;;;;;;;16.97;58.52;101215.75;4973360;28;20190;-72
2021/06/01 07:04:05;;;;;;;3.03;2.50;;;;;;;17.10;56.70;101210.81;4970638;28;21085;-72
2021/06/01 07:06:31;;;;;;;3.97;2.20;;;;;;;17.26;53.94;101221.53;4969351;28;20479;-72
2021/06/01 07:08:57;;;;;;;3.13;2.30;;;;;;;17.38;55.75;101213.06;4973728;28;20317;-72
2021/06/01 07:11:23;;;;;;;3.57;2.00;;;;;;;17.47;53.16;101209.16;4942963;28;20210;-72
2021/06/01 07:13:55;;;;;;;4.63;2.00;;;;;;;17.59;51.75;101216.50;4970190;28;20238;-72
2021/06/01 07:16:23;;;;;;;2.93;2.10;;;;;;;17.71;53.16;101208.03;4969892;28;20642;-72
2021/06/01 07:18:49;;;;;;;2.40;1.80;;;;;;;17.83;49.30;101216.28;4975769;28;20194;-72
2021/06/01 07:21:16;;;;;;;2.53;1.70;;;;;;;18.05;49.93;101217.00;4968104;28;20244;-72
2021/06/01 07:23:42;;;;;;;2.43;2.00;;;;;;;18.15;51.54;101206.84;4974943;28;20558;-72
2021/06/01 07:26:10;;;;;;;3.10;2.10;;;;;;;18.26;50.58;101201.91;4991716;28;20312;-72
2021/06/01 07:28:36;;;;;;;2.53;1.90;;;;;;;18.57;52.60;101194.25;4970925;28;20206;-71
2021/06/01 07:31:03;;;;;;;2.47;1.70;;;;;;;18.64;48.69;101203.56;4977686;28;20221;-72
2021/06/01 07:33:31;;;;;;;2.97;1.60;;;;;;;18.85;48.96;101193.72;4973041;28;20198;-72
2021/06/01 07:35:57;;;;;;;2.57;1.77;;;;;;;19.04;45.99;101205.03;4972665;28;20222;-72
2021/06/01 07:38:23;;;;;;;1.60;1.50;;;;;;;19.16;47.08;101190.31;4975185;28;20204;-72
2021/06/01 07:40:49;;;;;;;1.40;1.30;;;;;;;19.20;45.49;101197.13;4978391;28;20240;-72
2021/06/01 07:43:15;;;;;;;3.20;1.80;;;;;;;19.19;47.76;101198.09;4981380;28;20201;-72
2021/06/01 07:45:41;;;;;;;2.30;1.80;;;;;;;19.43;48.50;101195.06;4981462;28;20217;-72
2021/06/01 07:48:07;;;;;;;2.37;1.50;;;;;;;19.62;46.90;101193.09;4977378;28;20205;-72
2021/06/01 07:50:35;;;;;;;1.60;1.40;;;;;;;19.75;47.59;101188.03;4970103;28;20214;-72
2021/06/01 07:53:01;;;;;;;2.37;1.60;;;;;;;19.81;47.78;101195.63;4963079;28;20199;-72
2021/06/01 07:55:27;;;;;;;4.60;1.90;;;;;;;19.87;47.33;101186.47;4976886;28;20360;-72
2021/06/01 07:57:54;;;;;;;2.83;2.10;;;;;;;19.93;48.45;101185.28;4977684;28;20678;-71
2021/06/01 08:00:22;;;;;;;2.40;1.67;;;;;;;20.03;48.49;101183.81;4974718;28;20228;-71
2021/06/01 08:02:48;;;;;;;2.20;1.67;;;;;;;19.96;47.28;101177.16;4978769;28;20194;-71
2021/06/01 08:05:15;;;;;;;2.00;1.80;;;;;;;20.00;48.11;101173.44;4976314;28;20234;-71
2021/06/01 08:07:43;;;;;;;2.73;1.70;;;;;;;20.07;46.67;101174.78;4972267;28;20673;-72
2021/06/01 08:10:10;;;;;;;3.83;2.20;;;;;;;20.18;48.73;101171.50;4972353;28;20653;-71
2021/06/01 08:12:36;;;;;;;3.27;2.10;;;;;;;20.22;48.58;101165.09;4975181;28;20201;-71
2021/06/01 08:15:04;;;;;;;3.00;2.27;;;;;;;20.37;51.35;101166.84;4974455;28;20243;-71
2021/06/01 08:17:30;;;;;;;3.30;2.40;;;;;;;20.39;48.74;101172.91;4972997;28;20205;-71
2021/06/01 08:20:00;;;;;;;3.10;2.07;;;;;;;20.38;49.11;101171.19;4984982;28;20652;-72
2021/06/01 08:22:32;;;;;;;3.17;2.17;;;;;;;20.32;48.44;101160.13;4980156;28;20660;-71
2021/06/01 08:24:59;;;;;;;2.87;2.53;;;;;;;20.36;49.35;101157.19;4970476;28;20759;-71
2021/06/01 08:27:27;;;;;;;4.57;2.60;;;;;;;20.33;49.66;101157.34;4977176;28;20623;-71
2021/06/01 08:29:54;;;;;;;2.53;2.33;;;;;;;20.41;51.06;101159.56;4979395;28;20201;-71
2021/06/01 08:32:20;;;;;;;2.80;2.37;;;;;;;20.57;49.96;101152.41;4975404;28;20198;-71
2021/06/01 08:34:46;;;;;;;4.07;2.50;;;;;;;20.44;51.20;101156.75;4969973;28;20228;-71
2021/06/01 08:37:12;;;;;;;3.40;2.20;;;;;;;20.41;49.54;101159.56;4970908;28;20203;-71
2021/06/01 08:39:38;;;;;;;4.03;2.43;;;;;;;20.28;49.31;101162.09;4976868;28;20253;-71
2021/06/01 08:42:06;;;;;;;3.23;2.33;;;;;;;20.44;50.12;101151.44;4970925;28;20571;-71
2021/06/01 08:44:32;;;;;;;4.00;2.67;;;;;;;20.36;48.10;101156.34;4972054;28;20221;-71
2021/06/01 08:47:00;;;;;;;3.07;2.30;;;;;;;20.41;49.52;101156.94;4973686;28;20206;-71
2021/06/01 08:49:26;;;;;;;3.73;2.70;;;;;;;20.43;50.83;101147.09;4968227;28;20713;-71
2021/06/01 08:51:52;;;;;;;3.23;2.43;;;;;;;20.37;51.37;101147.47;4970308;28;20221;-71
2021/06/01 08:54:18;;;;;;;3.43;2.67;;;;;;;20.43;50.65;101152.38;4976177;28;20202;-71
2021/06/01 08:56:44;;;;;;;2.80;2.50;;;;;;;20.43;49.88;101155.03;4969913;28;20198;-71
2021/06/01 08:59:13;;;;;;;5.60;3.00;;;;;;;20.44;49.81;101159.41;4972010;28;20277;-71
2021/06/01 09:01:39;;;;;;;3.53;2.53;;;;;;;20.35;50.34;101149.31;4973697;28;20179;-71
2021/06/01 09:04:08;;;;;;;4.80;2.80;;;;;;;20.42;52.49;101146.25;4971505;28;20263;-71
2021/06/01 09:06:36;;;;;;;3.73;2.97;;;;;;;20.48;50.63;101139.72;4972380;28;20233;-71
2021/06/01 09:09:22;;;;;;;4.23;3.27;;;;;;;20.60;53.90;101144.28;4965445;28;20197;-71
2021/06/01 09:11:58;;;;;;;3.80;2.73;;;;;;;20.61;52.62;101148.69;4970860;28;20230;-71
2021/06/01 09:15:03;;;;;;;4.63;2.80;;;;;;;20.55;51.59;101142.88;4972296;28;20213;-71
2021/06/01 09:23:14;;;;;;;3.73;2.90;;;;;;;20.80;52.95;101137.81;4965014;28;20193;-73
2021/06/01 09:25:42;;;;;;;3.73;2.80;;;;;;;20.77;49.79;101142.44;4966338;28;20832;-73
2021/06/01 09:28:10;;;;;;;2.87;2.57;;;;;;;20.64;50.94;101133.53;4963000;28;20221;-73
2021/06/01 09:30:43;;;;;;;4.83;3.00;;;;;;;20.72;52.10;101131.25;4980634;28;20252;-73
2021/06/01 09:33:23;;;;;;;5.00;2.80;;;;;;;20.71;52.67;101122.47;4967593;28;20269;-73
2021/06/01 09:35:51;;;;;;;3.93;2.97;;;;;;;20.78;54.74;101122.97;4982646;28;20226;-71
2021/06/01 09:38:19;;;;;;;4.00;2.83;;;;;;;20.70;53.08;101114.63;4968714;28;20202;-71
2021/06/01 09:40:45;;;;;;;4.43;2.43;;;;;;;20.67;55.01;101107.72;4976841;28;20624;-73
2021/06/01 09:43:13;;;;;;;3.93;2.90;;;;;;;20.85;55.38;101100.44;4974340;28;20212;-74
2021/06/01 09:45:42;;;;;;;5.70;2.90;;;;;;;20.84;53.10;101104.00;4974399;28;20250;-73
2021/06/01 09:48:09;;;;;;;4.70;2.73;;;;;;;20.90;55.11;101094.84;4972251;28;20209;-71
2021/06/01 09:50:43;;;;;;;3.67;2.70;;;;;;;20.84;52.93;101097.88;4974631;28;20296;-71
2021/06/01 09:53:15;;;;;;;5.70;3.10;;;;;;;20.85;53.66;101094.28;4970512;28;20220;-71
2021/06/01 09:55:44;;;;;;;3.13;2.80;;;;;;;20.88;52.96;101092.31;4968952;28;20555;-71
2021/06/01 09:58:15;;;;;;;5.30;3.10;;;;;;;20.97;54.22;101090.88;4966087;28;20193;-71
2021/06/01 10:00:44;;;;;;;3.10;2.77;;;;;;;20.98;50.90;101096.09;4970727;28;20190;-71
2021/06/01 10:03:16;;;;;;;4.33;3.20;;;;;;;21.05;50.95;101095.69;4969805;28;20225;-71
2021/06/01 10:05:42;;;;;;;4.20;3.00;;;;;;;20.98;50.66;101085.50;4973252;28;20230;-71
2021/06/01 10:08:14;;;;;;;4.90;2.80;;;;;;;20.87;49.61;101089.75;4976311;28;20201;-71
2021/06/01 10:10:42;;;;;;;4.83;2.70;;;;;;;20.88;50.72;101080.81;4965870;28;20676;-71
2021/06/01 10:13:10;;;;;;;3.47;2.93;;;;;;;21.01;50.76;101075.63;4964356;28;20197;-71
2021/06/01 10:15:37;;;;;;;3.33;2.97;;;;;;;21.18;51.27;101075.41;4966054;28;20229;-71
2021/06/01 10:18:07;;;;;;;4.97;2.73;;;;;;;21.21;50.30;101077.84;4978291;28;20193;-71
2021/06/01 10:20:35;;;;;;;4.40;3.30;;;;;;;21.32;52.23;101072.72;4969801;28;20202;-71
2021/06/01 10:23:01;;;;;;;3.43;2.60;;;;;;;21.37;52.59;101065.34;4975274;28;20198;-71
2021/06/01 10:25:27;;;;;;;5.07;2.83;;;;;;;21.34;50.07;101072.63;4972330;28;20263;-71
2021/06/01 10:27:58;;;;;;;4.23;3.00;;;;;;;21.38;49.51;101074.97;4975676;28;20683;-71
2021/06/01 10:30:26;;;;;;;3.70;2.90;;;;;;;21.45;49.99;101061.31;4967258;28;20774;-71
2021/06/01 10:32:55;;;;;;;3.00;2.60;;;;;;;21.59;49.19;101063.97;4978291;28;20208;-71
2021/06/01 10:35:25;;;;;;;4.37;3.30;;;;;;;21.49;48.54;101055.75;4971968;28;20224;-71
2021/06/01 10:52:19;;;;;;;3.87;2.60;;;;;;;21.77;47.37;101034.50;4971719;28;20714;-71
2021/06/01 10:55:00;;;;;;;3.90;2.63;;;;;;;22.01;45.86;101039.97;4965857;28;20694;-71
2021/06/01 10:57:55;;;;;;;3.92;2.72;;;;;;;22.11;48.44;101020.66;4974542;28;20287;-71
2021/06/01 11:03:06;;;;;;;3.08;2.70;;;;;;;22.50;45.07;101031.31;4972862;28;20288;-71
2021/06/01 11:06:01;;;;;;;3.97;3.05;;;;;;;22.68;45.47;101027.34;4967740;28;20217;-71
2021/06/01 11:08:37;;;;;;;5.25;2.83;;;;;;;22.81;44.11;101026.47;4972859;28;20221;-71
2021/06/01 11:11:31;;;;;;;4.35;3.40;;;;;;;22.94;46.95;101026.47;4966586;28;20617;-71
2021/06/01 11:13:58;;;;;;;4.97;3.22;;;;;;;23.10;46.21;101027.09;4971153;28;20679;-71
2021/06/01 11:16:24;;;;;;;3.50;2.80;;;;;;;23.18;43.45;101031.84;4973780;28;20232;-71
2021/06/01 11:18:58;;;;;;;4.13;2.80;;;;;;;;;;4969707;28;20288;-71
2021/06/01 11:21:32;;;;;;;4.57;2.72;;;;;;;23.08;42.98;101021.03;4972070;28;20281;-71
2021/06/01 11:32:56;;;;;;;4.25;3.05;;;;;;;23.28;42.97;101005.41;4967023;28;20257;-71
2021/06/01 11:35:24;;;;;;;4.75;3.15;;;;;;;23.53;46.17;100999.13;4976730;28;20240;-71
2021/06/01 11:37:57;;;;;;;3.67;2.80;;;;;;;23.66;41.60;101005.22;4969319;28;20202;-71
2021/06/01 11:40:29;;;;;;;5.07;3.15;;;;;;;23.72;42.72;100999.44;4971519;28;20682;-71
2021/06/01 11:43:07;;;;;;;3.20;2.90;;;;;;;23.88;43.59;100999.13;4977055;28;20193;-71
2021/06/01 11:45:46;;;;;;;3.50;3.20;;;;;;;24.05;46.07;100973.88;4971023;28;20243;-71
2021/06/01 11:48:26;;;;;;;3.92;3.17;;;;;;;24.16;44.04;100983.69;4973019;28;20264;-71
2021/06/01 11:51:11;;;;;;;5.40;3.20;;;;;;;24.18;41.50;100987.09;4973577;28;20214;-71
2021/06/01 11:53:48;;;;;;;3.83;3.15;;;;;;;24.13;45.08;100984.81;4974069;28;20201;-71
2021/06/01 11:56:19;;;;;;;4.82;3.30;;;;;;;24.26;42.09;100974.03;4971549;28;20312;-71
2021/06/01 12:02:04;;;;;;;3.75;3.38;;;;;;;24.67;43.48;100961.91;4922405;28;20259;-71
2021/06/01 12:04:49;;;;;;;3.53;3.20;;;;;;;24.80;43.56;100951.13;4973297;28;20213;-71
2021/06/01 12:13:06;;;;;;;3.67;3.03;;;;;;;24.71;41.20;100952.72;4968433;28;20218;-71